• Join FlightAware (Why Join?)
  • Login
  • US Flag 
01:59AM EDT


 

Airport Tracker/Info


-or-


 

Live Flight TrackerFlight Track Log ✈ AAL963 ✈ 10-May-2013 ✈ KDFW - SBGR / GRU

Flight Track Log - Related Links

Times and Time Zones

All times are in EDT time to prevent confusion due to time zone crossing. See the AAL963 flight status page for this flight to view local times or setup timezone preferences in your user account.

Time Position Orientation Groundspeed Altitude Reporting Facility
EDT Latitude Longitude Course Direction KTS MPH feet Rate Location/Type
09:59PM 32.9310 -97.0280 10° North 170 196 1,900  Level FlightAware
10:00PM 32.9550 -97.0220 12° North 192 221 2,400 660 Climbing FlightAware
10:00PM 32.9850 -97.0150 11° North 230 265 2,600 840 Climbing FlightAware
10:01PM 33.0120 -97.0050 17° North 246 283 3,200 1,620 Climbing FlightAware
10:01PM 33.0250 -96.9930 38° Northeast 247 284 3,700 1,860 Climbing FlightAware
10:01PM 33.0490 -96.9630 46° Northeast 257 296 4,600 1,800 Climbing FlightAware
10:02PM 33.0610 -96.9290 67° East 267 307 5,400 1,560 Climbing FlightAware
10:02PM 33.0610 -96.9270 90° East 268 308 5,400 1,200 Level FlightAware
10:02PM 33.0470 -96.8880 113° Southeast 286 329 6,000 1,680 Climbing FlightAware
10:03PM 33.0280 -96.8580 127° Southeast 289 333 6,800 1,800 Climbing FlightAware
10:03PM 33.0010 -96.8210 131° Southeast 295 339 7,700 1,680 Climbing FlightAware
10:04PM 32.9640 -96.8000 155° Southeast 302 348 8,500 1,800 Climbing FlightAware
10:04PM 32.9270 -96.7940 172° South 300 345 9,400 1,800 Climbing FlightAware
10:05PM 32.8670 -96.7860 174° South 312 359 10,600 1,320 Climbing FlightAware
10:06PM 32.8070 -96.7830 178° South 341 392 11,300 1,560 Climbing FlightAware
10:06PM 32.7420 -96.7810 179° South 346 398 12,700 2,400 Climbing FlightAware
10:07PM 32.6680 -96.7790 179° South 344 396 14,700 2,220 Climbing FlightAware
10:08PM 32.6030 -96.7770 179° South 355 409 15,900 1,860 Climbing FlightAware
10:08PM 32.5390 -96.7510 161° South 370 426 17,200 1,860 Climbing FlightAware
10:09PM 32.4720 -96.7120 154° Southeast 374 430 18,600 1,860 Climbing FlightAware
10:09PM 32.4447 -96.6974 156° South 376 433 19,100 1,020 Climbing FlightAware ADS-B
10:10PM 32.3954 -96.6706 155° Southeast 399 459 19,400 1,200 Climbing FlightAware ADS-B
10:10PM 32.3435 -96.6425 155° Southeast 406 467 20,300 1,680 Climbing FlightAware ADS-B
10:11PM 32.2610 -96.5970 155° Southeast 413 475 21,700 1,560 Climbing FlightAware
10:12PM 32.2099 -96.5688 155° Southeast 411 473 22,400 1,680 Climbing FlightAware ADS-B
10:12PM 32.1475 -96.5338 155° Southeast 416 479 23,500 2,220 Climbing FlightAware ADS-B
10:13PM 32.0995 -96.5165 163° South 404 465 24,700 1,740 Climbing FlightAware ADS-B
10:13PM 32.0306 -96.5035 171° South 407 468 25,400 1,080 Climbing FlightAware ADS-B
10:14PM 31.9530 -96.4930 173° South 416 479 26,200 1,140 Climbing FlightAware
10:15PM 31.8740 -96.4820 173° South 423 487 27,000 1,260 Climbing FlightAware
10:15PM 31.8384 -96.4774 174° South 424 488 27,400 1,200 Climbing FlightAware ADS-B
10:15PM 31.7783 -96.4688 173° South 428 493 28,000 1,320 Climbing FlightAware ADS-B
10:16PM 31.7165 -96.4599 173° South 426 490 28,800 1,620 Climbing FlightAware ADS-B
10:17PM 31.6564 -96.4511 173° South 420 483 29,700 1,440 Climbing FlightAware ADS-B
10:17PM 31.5976 -96.4428 173° South 419 482 30,300 840 Climbing FlightAware ADS-B
10:18PM 31.5394 -96.4347 173° South 423 487 30,600 840 Climbing FlightAware ADS-B
10:18PM 31.4903 -96.4277 173° South 424 488 31,100 840 Climbing FlightAware ADS-B
10:18PM 31.4289 -96.4190 173° South 429 494 31,400 660 Climbing FlightAware ADS-B
10:19PM 31.3686 -96.4104 173° South 434 499 31,800 840 Climbing FlightAware ADS-B
10:20PM 31.3055 -96.4014 173° South 434 499 32,300 720 Climbing FlightAware ADS-B
10:20PM 31.2455 -96.3930 173° South 436 502 32,600 660 Climbing FlightAware ADS-B
10:20PM 31.2174 -96.3889 173° South 439 505 32,800 540 Climbing FlightAware ADS-B
10:20PM 31.2033 -96.3857 169° South 449 517 32,800  Level FlightAware ADS-B
10:20PM 31.1940 -96.3824 163° South 455 524 32,800  Level FlightAware ADS-B
10:21PM 31.1761 -96.3734 157° South 468 539 32,800  Level FlightAware ADS-B
10:21PM 31.1674 -96.3675 150° Southeast 475 547 32,800 480 Level FlightAware ADS-B
10:21PM 31.1539 -96.3560 144° Southeast 484 557 32,900 720 Climbing FlightAware ADS-B
10:21PM 31.1408 -96.3415 137° Southeast 493 567 33,000 120 Climbing FlightAware ADS-B
10:21PM 31.0962 -96.2723 127° Southeast 512 589 33,000  Level FlightAware ADS-B
10:22PM 31.0723 -96.2331 125° Southeast 517 595 33,000  Level FlightAware ADS-B
10:22PM 31.0307 -96.1734 129° Southeast 514 592 33,000  Level FlightAware ADS-B
10:23PM 30.9825 -96.1122 133° Southeast 509 586 33,000  Level FlightAware ADS-B
10:23PM 30.9334 -96.0533 134° Southeast 505 581 33,000  Level FlightAware ADS-B
10:24PM 30.8836 -95.9951 135° Southeast 511 588 33,000  Level FlightAware ADS-B
10:24PM 30.8318 -95.9354 135° Southeast 512 589 33,000  Level FlightAware ADS-B
10:25PM 30.7788 -95.8745 135° Southeast 511 588 33,000  Level FlightAware ADS-B
10:25PM 30.7267 -95.8147 135° Southeast 511 588 33,000 540 Level FlightAware ADS-B
10:26PM 30.6751 -95.7560 136° Southeast 508 585 33,600 1,200 Climbing FlightAware ADS-B
10:26PM 30.6241 -95.6976 135° Southeast 501 577 34,300 1,140 Climbing FlightAware ADS-B
10:27PM 30.5737 -95.6402 136° Southeast 500 575 34,800 660 Climbing FlightAware ADS-B
10:27PM 30.5213 -95.5806 136° Southeast 500 575 35,000 180 Climbing FlightAware ADS-B
10:28PM 30.4715 -95.5240 136° Southeast 499 574 35,000  Level FlightAware ADS-B
10:29PM 30.3961 -95.4384 136° Southeast 499 574 35,000  Level FlightAware ADS-B
10:29PM 30.3452 -95.3810 136° Southeast 499 574 35,000  Level FlightAware ADS-B
10:30PM 30.2957 -95.3247 136° Southeast 499 574 35,000  Level FlightAware ADS-B
10:30PM 30.2450 -95.2675 136° Southeast 504 580 35,000  Level FlightAware ADS-B
10:31PM 30.1936 -95.2095 136° Southeast 508 585 35,000  Level FlightAware ADS-B
10:31PM 30.1430 -95.1524 136° Southeast 508 585 35,000  Level FlightAware ADS-B
10:32PM 30.0917 -95.0946 136° Southeast 512 589 35,000  Level FlightAware ADS-B
10:32PM 30.0386 -95.0350 136° Southeast 518 596 35,000  Level FlightAware ADS-B
10:33PM 29.9869 -94.9769 136° Southeast 520 598 35,000  Level FlightAware ADS-B
10:33PM 29.9338 -94.9177 136° Southeast 521 600 35,000  Level FlightAware ADS-B
10:34PM 29.8811 -94.8588 136° Southeast 523 602 35,000  Level FlightAware ADS-B
10:34PM 29.8282 -94.7995 136° Southeast 524 603 35,000  Level FlightAware ADS-B
10:35PM 29.7750 -94.7403 136° Southeast 525 604 35,000  Level FlightAware ADS-B
10:35PM 29.7226 -94.6820 136° Southeast 523 602 35,000  Level FlightAware ADS-B
10:36PM 29.6695 -94.6230 136° Southeast 524 603 35,000  Level FlightAware ADS-B
10:36PM 29.6167 -94.5644 136° Southeast 523 602 35,000  Level FlightAware ADS-B
10:37PM 29.5635 -94.5056 136° Southeast 525 604 35,000  Level FlightAware ADS-B
10:37PM 29.5109 -94.4474 136° Southeast 525 604 35,000  Level FlightAware ADS-B
10:38PM 29.4571 -94.3881 136° Southeast 526 605 35,000  Level FlightAware ADS-B
10:38PM 29.4024 -94.3288 137° Southeast 526 605 35,000  Level FlightAware ADS-B
10:39PM 29.3345 -94.2590 138° Southeast 524 603 35,000  Level FlightAware ADS-B
10:39PM 29.2697 -94.1947 139° Southeast 523 602 35,000  Level FlightAware ADS-B
10:40PM 29.2135 -94.1402 140° Southeast 522 601 35,000  Level FlightAware ADS-B
10:41PM 29.0989 -94.0289 140° Southeast 517 595 35,000  Level Houston Center
10:42PM 28.9875 -93.9214 140° Southeast 521 600 35,000 -60 Level Houston Center
10:43PM 28.8650 -93.8083 141° Southeast 520 598 34,900  Descending Houston Center
10:44PM 28.7628 -93.7100 140° Southeast 525 604 35,000  Climbing Houston Center
10:50PM 28.1249 -93.1083 140° Southeast 525 604 35,000  Level FlightAware ADS-B
10:50PM 28.0619 -93.0493 140° Southeast 525 604 35,000  Level FlightAware ADS-B
10:51PM 27.9963 -92.9881 141° Southeast 523 602 35,000  Level FlightAware ADS-B
10:51PM 27.9369 -92.9326 140° Southeast 522 601 35,000  Level FlightAware ADS-B
10:52PM 27.8747 -92.8747 141° Southeast 521 600 35,000  Level FlightAware ADS-B
10:53PM 27.7798 -92.7864 141° Southeast 521 600 35,000 -120 Level FlightAware ADS-B
10:53PM 27.7253 -92.7336 141° Southeast 520 598 34,900 -120 Descending Houston Center
10:54PM 27.6131 -92.6308 141° Southeast 520 598 34,900  Level Houston Center
10:55PM 27.5008 -92.5275 141° Southeast 521 600 34,900  Level Houston Center
10:56PM 27.3892 -92.4247 141° Southeast 520 598 34,900  Level Houston Center
10:57PM 27.2767 -92.3214 141° Southeast 520 598 35,000  Climbing Houston Center
10:58PM 27.1647 -92.2181 141° Southeast 521 600 34,900 -60 Descending Houston Center
10:59PM 27.0514 -92.1161 141° Southeast 522 601 34,900  Level Houston Center
11:01PM 26.9524 -91.9977 133° Southeast  Level FlightAware Approximate
11:08PM 26.3005 -91.2455 146° Southeast  Level FlightAware Approximate
11:09PM 26.1903 -91.1614 146° Southeast  Level FlightAware Approximate
11:10PM 26.0801 -91.0775 146° Southeast  Level FlightAware Approximate
11:11PM 25.9701 -90.9933 145° Southeast  Level FlightAware Approximate
11:12PM 25.8607 -90.9081 145° Southeast  Level FlightAware Approximate
11:13PM 25.7513 -90.8231 145° Southeast  Level FlightAware Approximate
11:14PM 25.6419 -90.7382 145° Southeast  Level FlightAware Approximate
11:15PM 25.5324 -90.6535 145° Southeast  Level FlightAware Approximate
11:16PM 25.4228 -90.5689 145° Southeast  Level FlightAware Approximate
11:17PM 25.3135 -90.4841 144° Southeast  Level FlightAware Approximate
11:18PM 25.2054 -90.3974 144° Southeast  Level FlightAware Approximate
11:19PM 25.0972 -90.3109 144° Southeast  Level FlightAware Approximate
11:20PM 24.9889 -90.2248 145° Southeast  Level FlightAware Approximate
11:21PM 24.8794 -90.1405 145° Southeast  Level FlightAware Approximate
11:22PM 24.7698 -90.0564 145° Southeast  Level FlightAware Approximate
11:23PM 24.6602 -89.9724 145° Southeast  Level FlightAware Approximate
11:24PM 24.5504 -89.8884 145° Southeast  Level FlightAware Approximate
11:25PM 24.4465 -89.7964 138° Southeast  Level FlightAware Approximate
11:26PM 24.3476 -89.6975 138° Southeast  Level FlightAware Approximate
11:26PM 23.9500 -89.4370 138° Southeast 527 606 35,000  Level FlightAware
11:27PM 23.8870 -89.3880 145° Southeast 527 606 35,000  Level FlightAware
11:28PM 23.8020 -89.3230 145° Southeast 527 606 35,000  Level FlightAware
11:28PM 23.7000 -89.2480 146° Southeast 527 606 35,000  Level FlightAware
11:29PM 23.6050 -89.1770 146° Southeast 527 606 35,000  Level FlightAware
11:30PM 23.5260 -89.1180 146° Southeast 527 606 35,000  Level FlightAware
11:31PM 23.4430 -89.0560 146° Southeast 528 608 35,000  Level FlightAware
11:31PM 23.3560 -88.9910 146° Southeast 528 608 35,000  Level FlightAware
11:32PM 23.2730 -88.9290 146° Southeast 529 609 35,000  Level FlightAware
11:33PM 23.1810 -88.8610 146° Southeast 530 610 35,000  Level FlightAware
11:33PM 23.1010 -88.8010 145° Southeast 530 610 35,000  Level FlightAware
11:34PM 23.0200 -88.7410 146° Southeast 530 610 35,000  Level FlightAware
11:35PM 22.9300 -88.6750 146° Southeast 530 610 35,000  Level FlightAware
11:35PM 22.8480 -88.6140 146° Southeast 531 611 35,000  Level FlightAware
11:36PM 22.7690 -88.5560 146° Southeast 530 610 35,000  Level FlightAware
11:37PM 22.6760 -88.4830 144° Southeast 533 613 35,000  Level FlightAware
11:38PM 22.6020 -88.4120 138° Southeast 534 615 35,000  Level FlightAware
11:38PM 22.5220 -88.3320 137° Southeast 533 613 35,000  Level FlightAware
11:39PM 22.4500 -88.2600 137° Southeast 533 613 35,000  Level FlightAware
11:40PM 22.3770 -88.1860 137° Southeast 532 612 35,000  Level FlightAware
11:40PM 22.2940 -88.1050 138° Southeast 533 613 35,000  Level FlightAware
11:41PM 22.2200 -88.0310 137° Southeast 533 613 35,000  Level FlightAware
11:42PM 22.1410 -87.9530 138° Southeast 532 612 35,000  Level FlightAware
11:42PM 22.0680 -87.8800 137° Southeast 532 612 35,000  Level FlightAware
11:43PM 21.9950 -87.8090 138° Southeast 532 612 35,000  Level FlightAware
11:44PM 21.9120 -87.7260 137° Southeast 532 612 35,000  Level FlightAware
11:45PM 21.8380 -87.6540 138° Southeast 531 611 35,000  Level FlightAware
11:45PM 21.7660 -87.5830 138° Southeast 531 611 35,000  Level FlightAware
11:46PM 21.6870 -87.5050 137° Southeast 531 611 35,000  Level FlightAware
11:47PM 21.6140 -87.4330 137° Southeast 532 612 35,000  Level FlightAware
11:47PM 21.5300 -87.3500 137° Southeast 532 612 35,000  Level FlightAware
11:48PM 21.4580 -87.2800 138° Southeast 533 613 35,000  Level FlightAware
11:49PM 21.3770 -87.2010 138° Southeast 533 613 35,000  Level FlightAware
11:49PM 21.3040 -87.1290 137° Southeast 534 615 35,000  Level FlightAware
11:50PM 21.2320 -87.0590 138° Southeast 534 615 35,000  Level FlightAware
11:51PM 21.1470 -86.9770 138° Southeast 533 613 35,000  Level FlightAware
11:52PM 21.0750 -86.9070 138° Southeast 534 615 35,000  Level FlightAware
11:52PM 20.9930 -86.8270 138° Southeast 535 616 35,000  Level FlightAware
11:53PM 20.9200 -86.7570 138° Southeast 535 616 35,000  Level FlightAware
11:54PM 20.8470 -86.6860 138° Southeast 535 616 35,000  Level FlightAware
11:54PM 20.7730 -86.6140 138° Southeast 535 616 35,000  Level FlightAware
11:55PM 20.6900 -86.5330 138° Southeast 534 615 35,000  Level FlightAware
11:56PM 20.6120 -86.4580 138° Southeast 533 613 35,000  Level FlightAware
11:56PM 20.5410 -86.3880 137° Southeast 533 613 35,000  Level FlightAware
11:57PM 20.4800 -86.3270 137° Southeast 533 613 35,000  Level FlightAware
11:58PM 20.4180 -86.2660 137° Southeast 533 613 35,000  Level FlightAware
11:58PM 20.3570 -86.2050 137° Southeast 533 613 35,000  Level FlightAware
11:59PM 20.2960 -86.1440 137° Southeast 533 613 35,000  Level FlightAware
12:00AM 20.2190 -86.0680 137° Southeast 533 613 35,000  Level FlightAware
12:01AM 20.1580 -86.0070 137° Southeast 533 613 35,000  Level FlightAware
12:01AM 20.0960 -85.9460 137° Southeast 533 613 35,000  Level FlightAware
12:02AM 20.0350 -85.8850 137° Southeast 533 613 35,000  Level FlightAware
12:03AM 19.9590 -85.8090 137° Southeast 533 613 35,000  Level FlightAware
12:03AM 19.8970 -85.7490 138° Southeast 533 613 35,000  Level FlightAware
12:04AM 19.8360 -85.6880 137° Southeast 533 613 35,000  Level FlightAware
12:05AM 19.7750 -85.6270 137° Southeast 533 613 35,000  Level FlightAware
12:05AM 19.7130 -85.5660 137° Southeast 533 613 35,000  Level FlightAware
12:08AM 19.5116 -85.3650 137° Southeast  Level Estimated
12:09AM 19.4141 -85.2679 137° Southeast  Level Estimated
12:10AM 19.3165 -85.1709 137° Southeast  Level Estimated
12:11AM 19.2189 -85.0740 137° Southeast  Level Estimated
12:12AM 19.1212 -84.9772 137° Southeast  Level Estimated
12:13AM 19.0235 -84.8806 137° Southeast  Level Estimated
12:14AM 18.9257 -84.7841 137° Southeast  Level Estimated
12:15AM 18.8279 -84.6876 137° Southeast  Level Estimated
12:16AM 18.7300 -84.5913 137° Southeast  Level Estimated
12:17AM 18.6320 -84.4951 137° Southeast  Level Estimated
12:18AM 18.5341 -84.3991 137° Southeast  Level Estimated
12:19AM 18.4361 -84.3031 137° Southeast  Level Estimated
12:20AM 18.3380 -84.2072 137° Southeast  Level Estimated
12:21AM 18.2399 -84.1115 137° Southeast  Level Estimated
12:22AM 18.1417 -84.0158 137° Southeast  Level Estimated
12:23AM 18.0435 -83.9203 137° Southeast  Level Estimated
12:24AM 17.9452 -83.8249 137° Southeast  Level Estimated
12:25AM 17.8469 -83.7296 137° Southeast  Level Estimated
12:26AM 17.7486 -83.6343 137° Southeast  Level Estimated
12:27AM 17.6502 -83.5392 137° Southeast  Level Estimated
12:28AM 17.5517 -83.4442 137° Southeast  Level Estimated
12:29AM 17.4532 -83.3493 137° Southeast  Level Estimated
12:30AM 17.3547 -83.2545 137° Southeast  Level Estimated
12:31AM 17.2561 -83.1598 137° Southeast  Level Estimated
12:32AM 17.1575 -83.0652 137° Southeast  Level Estimated
12:33AM 17.0588 -82.9707 138° Southeast  Level Estimated
12:34AM 16.9601 -82.8763 138° Southeast  Level Estimated
12:35AM 16.8613 -82.7820 138° Southeast  Level Estimated
12:36AM 16.7625 -82.6878 138° Southeast  Level Estimated
12:37AM 16.6637 -82.5937 138° Southeast  Level Estimated
12:38AM 16.5648 -82.4997 138° Southeast  Level Estimated
12:39AM 16.4659 -82.4058 138° Southeast  Level Estimated
12:40AM 16.3669 -82.3120 138° Southeast  Level Estimated
12:41AM 16.2679 -82.2182 138° Southeast  Level Estimated
12:42AM 16.1688 -82.1246 138° Southeast  Level Estimated
12:43AM 16.0697 -82.0311 138° Southeast  Level Estimated
12:44AM 15.9706 -81.9376 138° Southeast  Level Estimated
12:45AM 15.8715 -81.8443 138° Southeast  Level Estimated
12:46AM 15.7722 -81.7510 138° Southeast  Level Estimated
12:47AM 15.6730 -81.6579 138° Southeast  Level Estimated
12:48AM 15.5737 -81.5648 138° Southeast  Level Estimated
12:49AM 15.4744 -81.4718 138° Southeast  Level Estimated
12:50AM 15.3750 -81.3789 138° Southeast  Level Estimated
12:51AM 15.2756 -81.2861 138° Southeast  Level Estimated
12:52AM 15.1761 -81.1934 138° Southeast  Level Estimated
12:53AM 15.0767 -81.1008 138° Southeast  Level Estimated
12:54AM 14.9771 -81.0082 138° Southeast  Level Estimated
12:55AM 14.8776 -80.9158 138° Southeast  Level Estimated
12:56AM 14.7780 -80.8234 138° Southeast  Level Estimated
12:57AM 14.6784 -80.7311 138° Southeast  Level Estimated
12:58AM 14.5787 -80.6389 138° Southeast  Level Estimated
12:59AM 14.4790 -80.5468 138° Southeast  Level Estimated
01:00AM 14.3792 -80.4548 138° Southeast  Level Estimated
01:01AM 14.2795 -80.3628 138° Southeast  Level Estimated
01:02AM 14.1796 -80.2709 138° Southeast  Level Estimated
01:03AM 14.0798 -80.1791 138° Southeast  Level Estimated
01:04AM 13.9799 -80.0874 138° Southeast  Level Estimated
01:05AM 13.8800 -79.9958 138° Southeast  Level Estimated
01:06AM 13.7800 -79.9042 138° Southeast  Level Estimated
01:07AM 13.6801 -79.8128 138° Southeast  Level Estimated
01:08AM 13.5800 -79.7214 138° Southeast  Level Estimated
01:09AM 13.4800 -79.6300 138° Southeast  Level Estimated
01:10AM 13.3799 -79.5388 138° Southeast  Level Estimated
01:11AM 13.2798 -79.4476 138° Southeast  Level Estimated
01:12AM 13.1796 -79.3565 138° Southeast  Level Estimated
01:13AM 13.0795 -79.2655 138° Southeast  Level Estimated
01:14AM 12.9792 -79.1746 139° Southeast  Level Estimated
01:15AM 12.8790 -79.0837 139° Southeast  Level Estimated
01:16AM 12.7787 -78.9929 139° Southeast  Level Estimated
01:17AM 12.6784 -78.9022 139° Southeast  Level Estimated
01:18AM 12.5781 -78.8115 139° Southeast  Level Estimated
01:19AM 12.4777 -78.7209 139° Southeast  Level Estimated
01:20AM 12.3773 -78.6304 139° Southeast  Level Estimated
01:21AM 12.2769 -78.5399 139° Southeast  Level Estimated
01:22AM 12.1764 -78.4496 139° Southeast  Level Estimated
01:23AM 12.0759 -78.3593 139° Southeast  Level Estimated
01:24AM 11.9754 -78.2690 139° Southeast  Level Estimated
01:25AM 11.8749 -78.1788 139° Southeast  Level Estimated
01:26AM 11.7743 -78.0887 139° Southeast  Level Estimated
01:27AM 11.6737 -77.9987 139° Southeast  Level Estimated
01:28AM 11.5731 -77.9087 139° Southeast  Level Estimated
01:28AM 11.2710 -77.3840 139° Southeast 483 556 35,000  Level FlightAware
01:28AM 11.2100 -77.3320 140° Southeast 480 552 35,000  Level FlightAware
01:29AM 11.1340 -77.2670 140° Southeast 479 551 35,000  Level FlightAware
01:30AM 11.0750 -77.2150 139° Southeast 479 551 35,000  Level FlightAware
01:30AM 10.9870 -77.1430 141° Southeast 477 549 35,000  Level FlightAware
01:31AM 10.8930 -77.0650 141° Southeast 476 548 35,000  Level FlightAware
01:32AM 10.8270 -77.0080 140° Southeast 476 548 35,000  Level FlightAware
01:33AM 10.7700 -76.9590 140° Southeast 476 548 35,000  Level FlightAware
01:33AM 10.6730 -76.8800 141° Southeast 35,000  Level FlightAware
01:36AM 10.4543 -76.6933 140° Southeast  Level FlightAware Approximate
01:37AM 10.3525 -76.6065 140° Southeast  Level FlightAware Approximate
01:38AM 10.2507 -76.5198 140° Southeast  Level FlightAware Approximate
01:39AM 10.1489 -76.4331 140° Southeast  Level FlightAware Approximate
01:39AM 10.1010 -76.4030 140° Southeast 475 547 35,000  Level FlightAware
01:40AM 10.0170 -76.3310 140° Southeast 468 539 35,000  Level FlightAware
01:42AM 9.8492 -76.1879 140° Southeast  Level FlightAware Approximate
01:42AM 9.8430 -76.1870 140° Southeast 465 535 35,000  Level FlightAware
01:43AM 9.7320 -76.0950 141° Southeast 465 535 35,000  Level FlightAware
01:43AM 9.6540 -76.0310 141° Southeast 466 536 35,000  Level FlightAware
01:44AM 9.5980 -75.9830 140° Southeast 466 536 35,000  Level FlightAware
01:45AM 9.5420 -75.9360 140° Southeast 466 536 35,000  Level FlightAware
01:45AM 9.4860 -75.8880 140° Southeast 466 536 35,000  Level FlightAware
01:46AM 9.4160 -75.8280 140° Southeast 466 536 35,000  Level FlightAware
01:47AM 9.3590 -75.7800 140° Southeast 466 536 35,000  Level FlightAware
01:48AM 9.3030 -75.7330 140° Southeast 466 536 35,000  Level FlightAware
01:48AM 9.2470 -75.6850 140° Southeast 466 536 35,000  Level FlightAware
01:49AM 9.1910 -75.6370 140° Southeast 466 536 35,000  Level FlightAware
01:50AM 9.1210 -75.5780 140° Southeast 466 536 35,000  Level FlightAware
01:50AM 9.0650 -75.5300 140° Southeast 466 536 35,000  Level FlightAware
01:51AM 9.0080 -75.4820 140° Southeast 466 536 35,000  Level FlightAware
01:52AM 8.9520 -75.4350 140° Southeast 466 536 35,000  Level FlightAware
01:52AM 8.8960 -75.3870 140° Southeast 466 536 35,000  Level FlightAware
01:55AM 8.6773 -75.2012 140° Southeast  Level FlightAware Approximate
01:56AM 8.5755 -75.1149 140° Southeast  Level FlightAware Approximate
01:57AM 8.4737 -75.0286 140° Southeast  Level FlightAware Approximate
01:58AM 8.3719 -74.9424 140° Southeast  Level FlightAware Approximate
01:59AM 8.2701 -74.8562 140° Southeast  Level FlightAware Approximate
02:00AM 8.1682 -74.7701 140° Southeast  Level FlightAware Approximate
02:01AM 8.0663 -74.6840 140° Southeast  Level FlightAware Approximate
02:02AM 7.9645 -74.5979 140° Southeast  Level FlightAware Approximate
02:03AM 7.8626 -74.5119 140° Southeast  Level FlightAware Approximate
02:04AM 7.7607 -74.4259 140° Southeast  Level FlightAware Approximate
02:05AM 7.6587 -74.3400 140° Southeast  Level FlightAware Approximate
02:06AM 7.5568 -74.2541 140° Southeast  Level FlightAware Approximate
02:07AM 7.4548 -74.1683 140° Southeast  Level FlightAware Approximate
02:08AM 7.3528 -74.0825 140° Southeast  Level FlightAware Approximate
02:09AM 7.2508 -73.9967 140° Southeast  Level FlightAware Approximate
02:10AM 7.1488 -73.9109 140° Southeast  Level FlightAware Approximate
02:11AM 7.0468 -73.8253 140° Southeast  Level FlightAware Approximate
02:12AM 6.9342 -73.7552 152° Southeast  Level FlightAware Approximate
02:13AM 6.8174 -73.6916 152° Southeast  Level FlightAware Approximate
02:14AM 6.7005 -73.6281 152° Southeast  Level FlightAware Approximate
02:15AM 6.5836 -73.5646 152° Southeast  Level FlightAware Approximate
02:16AM 6.4667 -73.5012 152° Southeast  Level FlightAware Approximate
02:17AM 6.3498 -73.4378 152° Southeast  Level FlightAware Approximate
02:18AM 6.2328 -73.3744 152° Southeast  Level FlightAware Approximate
02:19AM 6.1159 -73.3110 152° Southeast  Level FlightAware Approximate
02:20AM 5.9990 -73.2476 152° Southeast  Level FlightAware Approximate
02:21AM 5.8820 -73.1843 152° Southeast  Level FlightAware Approximate
02:22AM 5.7651 -73.1210 152° Southeast  Level FlightAware Approximate
02:23AM 5.6481 -73.0578 152° Southeast  Level FlightAware Approximate
02:24AM 5.5311 -72.9946 152° Southeast  Level FlightAware Approximate
02:25AM 5.4142 -72.9313 152° Southeast  Level FlightAware Approximate
02:26AM 5.2972 -72.8681 152° Southeast  Level FlightAware Approximate
02:27AM 5.1802 -72.8050 152° Southeast  Level FlightAware Approximate
02:28AM 5.0632 -72.7419 152° Southeast  Level FlightAware Approximate
02:29AM 4.9462 -72.6787 152° Southeast  Level FlightAware Approximate
02:30AM 4.8292 -72.6156 152° Southeast  Level FlightAware Approximate
02:31AM 4.7122 -72.5526 152° Southeast  Level FlightAware Approximate
02:32AM 4.5952 -72.4895 152° Southeast  Level FlightAware Approximate
02:33AM 4.4782 -72.4265 152° Southeast  Level FlightAware Approximate
02:34AM 4.3611 -72.3635 152° Southeast  Level FlightAware Approximate
02:35AM 4.2441 -72.3005 152° Southeast  Level FlightAware Approximate
02:36AM 4.1271 -72.2375 152° Southeast  Level FlightAware Approximate
02:37AM 4.0100 -72.1746 152° Southeast  Level FlightAware Approximate
02:38AM 3.8959 -72.1069 145° Southeast  Level FlightAware Approximate
02:39AM 3.7873 -72.0303 145° Southeast  Level FlightAware Approximate
02:40AM 3.6787 -71.9536 145° Southeast  Level FlightAware Approximate
02:41AM 3.5701 -71.8770 145° Southeast  Level FlightAware Approximate
02:42AM 3.4615 -71.8005 145° Southeast  Level FlightAware Approximate
02:43AM 3.3528 -71.7239 145° Southeast  Level FlightAware Approximate
02:44AM 3.2442 -71.6473 145° Southeast  Level FlightAware Approximate
02:45AM 3.1356 -71.5708 145° Southeast  Level FlightAware Approximate
02:46AM 3.0269 -71.4943 145° Southeast  Level FlightAware Approximate
02:47AM 2.9183 -71.4178 145° Southeast  Level FlightAware Approximate
02:48AM 2.8096 -71.3413 145° Southeast  Level FlightAware Approximate
02:49AM 2.7009 -71.2648 145° Southeast  Level FlightAware Approximate
02:50AM 2.5923 -71.1884 145° Southeast  Level FlightAware Approximate
02:51AM 2.4836 -71.1119 145° Southeast  Level FlightAware Approximate
02:52AM 2.3749 -71.0355 145° Southeast  Level FlightAware Approximate
02:53AM 2.2663 -70.9591 145° Southeast  Level FlightAware Approximate
02:54AM 2.1576 -70.8827 145° Southeast  Level FlightAware Approximate
02:55AM 2.0489 -70.8063 145° Southeast  Level FlightAware Approximate
02:56AM 1.9402 -70.7299 145° Southeast  Level FlightAware Approximate
02:57AM 1.8315 -70.6535 145° Southeast  Level FlightAware Approximate
02:58AM 1.7228 -70.5771 145° Southeast  Level FlightAware Approximate
02:59AM 1.6141 -70.5008 145° Southeast  Level FlightAware Approximate
03:00AM 1.5054 -70.4244 145° Southeast  Level FlightAware Approximate
03:01AM 1.3967 -70.3481 145° Southeast  Level FlightAware Approximate
03:02AM 1.2880 -70.2717 145° Southeast  Level FlightAware Approximate
03:03AM 1.1840 -70.1894 138° Southeast  Level FlightAware Approximate
03:04AM 1.0848 -70.1011 138° Southeast  Level FlightAware Approximate
03:05AM 0.9856 -70.0128 138° Southeast  Level FlightAware Approximate
03:06AM 0.8863 -69.9245 138° Southeast  Level FlightAware Approximate
03:07AM 0.7871 -69.8362 138° Southeast  Level FlightAware Approximate
03:08AM 0.6879 -69.7479 138° Southeast  Level FlightAware Approximate
03:09AM 0.5887 -69.6596 138° Southeast  Level FlightAware Approximate
03:10AM 0.4894 -69.5713 138° Southeast  Level FlightAware Approximate
03:11AM 0.3904 -69.4831 138° Southeast  Level FlightAware Approximate
03:12AM 0.2913 -69.3950 138° Southeast  Level FlightAware Approximate
03:13AM 0.1922 -69.3069 138° Southeast  Level FlightAware Approximate
03:14AM 0.0932 -69.2187 138° Southeast  Level FlightAware Approximate
03:15AM -0.0059 -69.1306 138° Southeast  Level FlightAware Approximate
03:16AM -0.1049 -69.0425 138° Southeast  Level FlightAware Approximate
03:17AM -0.2040 -68.9544 138° Southeast  Level FlightAware Approximate
03:18AM -0.3031 -68.8662 138° Southeast  Level FlightAware Approximate
03:19AM -0.4021 -68.7781 138° Southeast  Level FlightAware Approximate
03:20AM -0.5012 -68.6899 138° Southeast  Level FlightAware Approximate
03:21AM -0.6002 -68.6018 138° Southeast  Level FlightAware Approximate
03:22AM -0.6993 -68.5137 138° Southeast  Level FlightAware Approximate
03:23AM -0.7983 -68.4255 138° Southeast  Level FlightAware Approximate
03:24AM -0.8974 -68.3374 138° Southeast  Level FlightAware Approximate
03:25AM -0.9964 -68.2492 138° Southeast  Level FlightAware Approximate
03:26AM -1.0955 -68.1611 138° Southeast  Level FlightAware Approximate
03:27AM -1.1945 -68.0729 138° Southeast  Level FlightAware Approximate
03:28AM -1.2936 -67.9847 138° Southeast  Level FlightAware Approximate
03:29AM -1.3926 -67.8965 138° Southeast  Level FlightAware Approximate
03:30AM -1.4916 -67.8083 138° Southeast  Level FlightAware Approximate
03:31AM -1.5906 -67.7202 138° Southeast  Level FlightAware Approximate
03:32AM -1.6897 -67.6320 138° Southeast  Level FlightAware Approximate
03:33AM -1.7887 -67.5437 138° Southeast  Level FlightAware Approximate
03:34AM -1.8877 -67.4555 138° Southeast  Level FlightAware Approximate
03:35AM -1.9867 -67.3673 138° Southeast  Level FlightAware Approximate
03:36AM -2.0857 -67.2791 138° Southeast  Level FlightAware Approximate
03:37AM -2.1847 -67.1908 138° Southeast  Level FlightAware Approximate
03:38AM -2.2837 -67.1025 138° Southeast  Level FlightAware Approximate
03:39AM -2.3827 -67.0143 138° Southeast  Level FlightAware Approximate
03:40AM -2.4817 -66.9260 138° Southeast  Level FlightAware Approximate
03:41AM -2.5807 -66.8377 138° Southeast  Level FlightAware Approximate
03:42AM -2.6797 -66.7494 138° Southeast  Level FlightAware Approximate
03:43AM -2.7787 -66.6610 138° Southeast  Level FlightAware Approximate
03:44AM -2.8776 -66.5727 138° Southeast  Level FlightAware Approximate
03:45AM -2.9766 -66.4843 138° Southeast  Level FlightAware Approximate
03:46AM -3.0755 -66.3959 138° Southeast  Level FlightAware Approximate
03:47AM -3.1745 -66.3075 138° Southeast  Level FlightAware Approximate
03:48AM -3.2734 -66.2191 138° Southeast  Level FlightAware Approximate
03:49AM -3.3723 -66.1307 138° Southeast  Level FlightAware Approximate
03:50AM -3.4712 -66.0423 138° Southeast  Level FlightAware Approximate
03:51AM -3.5701 -65.9538 138° Southeast  Level FlightAware Approximate
03:52AM -3.6690 -65.8653 138° Southeast  Level FlightAware Approximate
03:53AM -3.7679 -65.7768 138° Southeast  Level FlightAware Approximate
03:54AM -3.8668 -65.6883 138° Southeast  Level FlightAware Approximate
03:55AM -3.9657 -65.5997 138° Southeast  Level FlightAware Approximate
03:56AM -4.0645 -65.5112 138° Southeast  Level FlightAware Approximate
03:57AM -4.1634 -65.4226 138° Southeast  Level FlightAware Approximate
03:58AM -4.2623 -65.3340 138° Southeast  Level FlightAware Approximate
03:59AM -4.3611 -65.2454 138° Southeast  Level FlightAware Approximate
04:00AM -4.4599 -65.1567 138° Southeast  Level FlightAware Approximate
04:01AM -4.5587 -65.0680 138° Southeast  Level FlightAware Approximate
04:02AM -4.6575 -64.9793 138° Southeast  Level FlightAware Approximate
04:03AM -4.7563 -64.8906 138° Southeast  Level FlightAware Approximate
04:04AM -4.8551 -64.8018 138° Southeast  Level FlightAware Approximate
04:05AM -4.9539 -64.7131 138° Southeast  Level FlightAware Approximate
04:06AM -5.0526 -64.6242 138° Southeast  Level FlightAware Approximate
04:07AM -5.1514 -64.5354 138° Southeast  Level FlightAware Approximate
04:08AM -5.2501 -64.4465 138° Southeast  Level FlightAware Approximate
04:09AM -5.3488 -64.3577 138° Southeast  Level FlightAware Approximate
04:10AM -5.4475 -64.2687 138° Southeast  Level FlightAware Approximate
04:11AM -5.5462 -64.1798 138° Southeast  Level FlightAware Approximate
04:12AM -5.6449 -64.0908 138° Southeast  Level FlightAware Approximate
04:13AM -5.7436 -64.0018 138° Southeast  Level FlightAware Approximate
04:14AM -5.8422 -63.9128 138° Southeast  Level FlightAware Approximate
04:15AM -5.9409 -63.8237 138° Southeast  Level FlightAware Approximate
04:16AM -6.0395 -63.7346 138° Southeast  Level FlightAware Approximate
04:17AM -6.1381 -63.6455 138° Southeast  Level FlightAware Approximate
04:18AM -6.2367 -63.5563 138° Southeast  Level FlightAware Approximate
04:19AM -6.3353 -63.4671 138° Southeast  Level FlightAware Approximate
04:20AM -6.4339 -63.3779 138° Southeast  Level FlightAware Approximate
04:21AM -6.5324 -63.2886 138° Southeast  Level FlightAware Approximate
04:22AM -6.6309 -63.1993 138° Southeast  Level FlightAware Approximate
04:23AM -6.7295 -63.1100 138° Southeast  Level FlightAware Approximate
04:24AM -6.8280 -63.0206 138° Southeast  Level FlightAware Approximate
04:25AM -6.9265 -62.9312 138° Southeast  Level FlightAware Approximate
04:26AM -7.0249 -62.8417 138° Southeast  Level FlightAware Approximate
04:27AM -7.1234 -62.7522 138° Southeast  Level FlightAware Approximate
04:28AM -7.2218 -62.6627 138° Southeast  Level FlightAware Approximate
04:29AM -7.3202 -62.5731 138° Southeast  Level FlightAware Approximate
04:30AM -7.4186 -62.4835 138° Southeast  Level FlightAware Approximate
04:31AM -7.5170 -62.3939 138° Southeast  Level FlightAware Approximate
04:32AM -7.6154 -62.3042 138° Southeast  Level FlightAware Approximate
04:33AM -7.7137 -62.2144 138° Southeast  Level FlightAware Approximate
04:34AM -7.8121 -62.1247 138° Southeast  Level FlightAware Approximate
04:35AM -7.9104 -62.0349 138° Southeast  Level FlightAware Approximate
04:36AM -8.0087 -61.9450 138° Southeast  Level FlightAware Approximate
04:37AM -8.1069 -61.8551 138° Southeast  Level FlightAware Approximate
04:38AM -8.2052 -61.7652 138° Southeast  Level FlightAware Approximate
04:39AM -8.3034 -61.6752 138° Southeast  Level FlightAware Approximate
04:40AM -8.4016 -61.5852 138° Southeast  Level FlightAware Approximate
04:41AM -8.4998 -61.4951 138° Southeast  Level FlightAware Approximate
04:42AM -8.5980 -61.4049 138° Southeast  Level FlightAware Approximate
04:43AM -8.6961 -61.3148 138° Southeast  Level FlightAware Approximate
04:44AM -8.7943 -61.2246 138° Southeast  Level FlightAware Approximate
04:45AM -8.8924 -61.1343 138° Southeast  Level FlightAware Approximate
04:46AM -8.9904 -61.0440 138° Southeast  Level FlightAware Approximate
04:47AM -9.0885 -60.9536 138° Southeast  Level FlightAware Approximate
04:48AM -9.1865 -60.8632 138° Southeast  Level FlightAware Approximate
04:49AM -9.2844 -60.7729 138° Southeast  Level FlightAware Approximate
04:50AM -9.3822 -60.6826 138° Southeast  Level FlightAware Approximate
04:51AM -9.4800 -60.5922 138° Southeast  Level FlightAware Approximate
04:52AM -9.5778 -60.5017 138° Southeast  Level FlightAware Approximate
04:53AM -9.6755 -60.4112 138° Southeast  Level FlightAware Approximate
04:54AM -9.7733 -60.3206 138° Southeast  Level FlightAware Approximate
04:55AM -9.8710 -60.2300 138° Southeast  Level FlightAware Approximate
04:56AM -9.9686 -60.1394 138° Southeast  Level FlightAware Approximate
04:57AM -10.0663 -60.0486 138° Southeast  Level FlightAware Approximate
04:58AM -10.1639 -59.9579 138° Southeast  Level FlightAware Approximate
04:59AM -10.2617 -59.8669 138° Southeast  Level FlightAware Approximate
05:00AM -10.3595 -59.7758 138° Southeast  Level FlightAware Approximate
05:01AM -10.4572 -59.6847 137° Southeast  Level FlightAware Approximate
05:02AM -10.5549 -59.5936 137° Southeast  Level FlightAware Approximate
05:03AM -10.6526 -59.5023 137° Southeast  Level FlightAware Approximate
05:04AM -10.7502 -59.4111 137° Southeast  Level FlightAware Approximate
05:05AM -10.8478 -59.3197 137° Southeast  Level FlightAware Approximate
05:06AM -10.9454 -59.2283 137° Southeast  Level FlightAware Approximate
05:07AM -11.0430 -59.1369 137° Southeast  Level FlightAware Approximate
05:08AM -11.1405 -59.0453 137° Southeast  Level FlightAware Approximate
05:09AM -11.2380 -58.9538 137° Southeast  Level FlightAware Approximate
05:10AM -11.3355 -58.8621 137° Southeast  Level FlightAware Approximate
05:11AM -11.4330 -58.7704 137° Southeast  Level FlightAware Approximate
05:12AM -11.5304 -58.6787 137° Southeast  Level FlightAware Approximate
05:13AM -11.6278 -58.5868 137° Southeast  Level FlightAware Approximate
05:14AM -11.7252 -58.4949 137° Southeast  Level FlightAware Approximate
05:15AM -11.8225 -58.4030 137° Southeast  Level FlightAware Approximate
05:16AM -11.9198 -58.3110 137° Southeast  Level FlightAware Approximate
05:17AM -12.0171 -58.2189 137° Southeast  Level FlightAware Approximate
05:18AM -12.1144 -58.1267 137° Southeast  Level FlightAware Approximate
05:19AM -12.2116 -58.0345 137° Southeast  Level FlightAware Approximate
05:20AM -12.3088 -57.9422 137° Southeast  Level FlightAware Approximate
05:21AM -12.4059 -57.8498 137° Southeast  Level FlightAware Approximate
05:22AM -12.5031 -57.7574 137° Southeast  Level FlightAware Approximate
05:23AM -12.6002 -57.6649 137° Southeast  Level FlightAware Approximate
05:24AM -12.6972 -57.5723 137° Southeast  Level FlightAware Approximate
05:25AM -12.7942 -57.4797 137° Southeast  Level FlightAware Approximate
05:26AM -12.8912 -57.3870 137° Southeast  Level FlightAware Approximate
05:27AM -12.9882 -57.2942 137° Southeast  Level FlightAware Approximate
05:28AM -13.0851 -57.2013 137° Southeast  Level FlightAware Approximate
05:29AM -13.1820 -57.1084 137° Southeast  Level FlightAware Approximate
05:30AM -13.2789 -57.0154 137° Southeast  Level FlightAware Approximate
05:31AM -13.3757 -56.9223 137° Southeast  Level FlightAware Approximate
05:32AM -13.4726 -56.8292 137° Southeast  Level FlightAware Approximate
05:33AM -13.5693 -56.7360 137° Southeast  Level FlightAware Approximate
05:34AM -13.6660 -56.6427 137° Southeast  Level FlightAware Approximate
05:35AM -13.7627 -56.5493 137° Southeast  Level FlightAware Approximate
05:36AM -13.8594 -56.4558 137° Southeast  Level FlightAware Approximate
05:37AM -13.9560 -56.3623 137° Southeast  Level FlightAware Approximate
05:38AM -14.0526 -56.2687 137° Southeast  Level FlightAware Approximate
05:39AM -14.1492 -56.1750 137° Southeast  Level FlightAware Approximate
05:40AM -14.2457 -56.0812 137° Southeast  Level FlightAware Approximate
05:41AM -14.3422 -55.9874 137° Southeast  Level FlightAware Approximate
05:42AM -14.4386 -55.8934 137° Southeast  Level FlightAware Approximate
05:43AM -14.5350 -55.7994 137° Southeast  Level FlightAware Approximate
05:44AM -14.6314 -55.7053 137° Southeast  Level FlightAware Approximate
05:45AM -14.7277 -55.6111 137° Southeast  Level FlightAware Approximate
05:46AM -14.8240 -55.5169 137° Southeast  Level FlightAware Approximate
05:47AM -14.9202 -55.4225 137° Southeast  Level FlightAware Approximate
05:48AM -15.0165 -55.3281 137° Southeast  Level FlightAware Approximate
05:49AM -15.1126 -55.2336 137° Southeast  Level FlightAware Approximate
05:50AM -15.2088 -55.1390 136° Southeast  Level FlightAware Approximate
05:51AM -15.3049 -55.0443 136° Southeast  Level FlightAware Approximate
05:52AM -15.4010 -54.9495 136° Southeast  Level FlightAware Approximate
05:53AM -15.4970 -54.8547 136° Southeast  Level FlightAware Approximate
05:54AM -15.5929 -54.7597 136° Southeast  Level FlightAware Approximate
05:55AM -15.6889 -54.6647 136° Southeast  Level FlightAware Approximate
05:56AM -15.7848 -54.5695 136° Southeast  Level FlightAware Approximate
05:57AM -15.8806 -54.4743 136° Southeast  Level FlightAware Approximate
05:58AM -15.9764 -54.3790 136° Southeast  Level FlightAware Approximate
05:59AM -16.0722 -54.2836 136° Southeast  Level FlightAware Approximate
06:00AM -16.1679 -54.1881 136° Southeast  Level FlightAware Approximate
06:01AM -16.2636 -54.0925 136° Southeast  Level FlightAware Approximate
06:02AM -16.3593 -53.9968 136° Southeast  Level FlightAware Approximate
06:03AM -16.4549 -53.9011 136° Southeast  Level FlightAware Approximate
06:04AM -16.5504 -53.8052 136° Southeast  Level FlightAware Approximate
06:05AM -16.6459 -53.7093 136° Southeast  Level FlightAware Approximate
06:06AM -16.7414 -53.6132 136° Southeast  Level FlightAware Approximate
06:07AM -16.8368 -53.5170 136° Southeast  Level FlightAware Approximate
06:08AM -16.9322 -53.4208 136° Southeast  Level FlightAware Approximate
06:09AM -17.0275 -53.3244 136° Southeast  Level FlightAware Approximate
06:10AM -17.1228 -53.2280 136° Southeast  Level FlightAware Approximate
06:11AM -17.2181 -53.1314 136° Southeast  Level FlightAware Approximate
06:12AM -17.3133 -53.0348 136° Southeast  Level FlightAware Approximate
06:13AM -17.4084 -52.9381 136° Southeast  Level FlightAware Approximate
06:14AM -17.5035 -52.8412 136° Southeast  Level FlightAware Approximate
06:15AM -17.5986 -52.7443 136° Southeast  Level FlightAware Approximate
06:16AM -17.6936 -52.6472 136° Southeast  Level FlightAware Approximate
06:17AM -17.7885 -52.5501 136° Southeast  Level FlightAware Approximate
06:18AM -17.8834 -52.4528 136° Southeast  Level FlightAware Approximate
06:19AM -17.9783 -52.3554 136° Southeast  Level FlightAware Approximate
06:20AM -18.0731 -52.2580 136° Southeast  Level FlightAware Approximate
06:21AM -18.1679 -52.1604 136° Southeast  Level FlightAware Approximate
06:22AM -18.2626 -52.0627 136° Southeast  Level FlightAware Approximate
06:23AM -18.3573 -51.9650 136° Southeast  Level FlightAware Approximate
06:24AM -18.4519 -51.8671 136° Southeast  Level FlightAware Approximate
06:25AM -18.5465 -51.7691 136° Southeast  Level FlightAware Approximate
06:25AM -19.1310 -50.5270 135° Southeast 479 551 39,000  Level FlightAware
06:26AM -18.6410 -51.6710 135° Southeast  Level FlightAware Approximate
06:26AM -19.2010 -50.4510 134° Southeast 477 549 39,000  Level FlightAware
06:27AM -19.2570 -50.3890 134° Southeast 475 547 39,000  Level FlightAware
06:28AM -19.3170 -50.3240 134° Southeast 475 547 39,000  Level FlightAware
06:28AM -19.3940 -50.2390 134° Southeast 475 547 39,000  Level FlightAware
06:29AM -19.4810 -50.1440 134° Southeast 475 547 39,000  Level FlightAware
06:30AM -19.5420 -50.0760 134° Southeast 475 547 39,000  Level FlightAware
06:31AM -19.6170 -49.9940 134° Southeast 476 548 39,000  Level FlightAware
06:33AM -19.7996 -49.8308 140° Southeast  Level Estimated
06:33AM -19.7980 -49.7960 140° Southeast 476 548 39,000  Level FlightAware
06:33AM -19.8670 -49.7210 134° Southeast 475 547 39,000  Level FlightAware
06:34AM -19.9290 -49.6530 134° Southeast 476 548 39,000  Level FlightAware
06:35AM -19.9960 -49.5790 134° Southeast 475 547 39,000  Level FlightAware
06:35AM -20.0470 -49.5230 134° Southeast 475 547 39,000  Level FlightAware
06:36AM -20.1200 -49.4430 134° Southeast 475 547 39,000  Level FlightAware
06:37AM -20.1850 -49.3710 134° Southeast 473 544 39,000  Level FlightAware
06:38AM -20.2500 -49.3000 134° Southeast 472 543 39,000  Level FlightAware
06:38AM -20.3180 -49.2240 134° Southeast 472 543 39,000  Level FlightAware
06:39AM -20.3760 -49.1610 134° Southeast 471 542 39,000  Level FlightAware
06:40AM -20.4430 -49.0860 134° Southeast 470 541 39,000  Level FlightAware
06:40AM -20.5050 -49.0170 134° Southeast 469 540 39,000  Level FlightAware
06:41AM -20.5660 -48.9500 134° Southeast 469 540 39,000  Level FlightAware
06:42AM -20.6350 -48.8740 134° Southeast 468 539 39,000  Level FlightAware
06:43AM -20.6910 -48.8110 134° Southeast 468 539 39,000  Level FlightAware
06:43AM -20.7580 -48.7360 134° Southeast 468 539 39,000  Level FlightAware
06:44AM -20.8210 -48.6660 134° Southeast 469 540 39,000  Level FlightAware
06:45AM -20.8840 -48.5950 134° Southeast 469 540 39,000  Level FlightAware
06:45AM -20.9450 -48.5260 133° Southeast 469 540 39,000  Level FlightAware
06:46AM -21.0070 -48.4560 134° Southeast 470 541 39,000  Level FlightAware
06:47AM -21.0680 -48.3870 133° Southeast 471 542 39,000  Level FlightAware
06:48AM -21.1430 -48.3030 134° Southeast 469 540 39,000  Level FlightAware
06:48AM -21.2020 -48.2360 133° Southeast 469 540 39,000  Level FlightAware
06:49AM -21.2640 -48.1660 134° Southeast 468 539 39,000  Level FlightAware
06:50AM -21.3530 -48.0650 133° Southeast 468 539 39,000  Level FlightAware
06:50AM -21.4030 -48.0090 134° Southeast 466 536 39,000  Level FlightAware
06:51AM -21.4700 -47.9320 133° Southeast 466 536 39,000  Level FlightAware
06:52AM -21.5290 -47.8650 133° Southeast 464 534 39,000  Level FlightAware
06:53AM -21.5960 -47.7890 133° Southeast 458 527 39,000  Level FlightAware
06:53AM -21.6540 -47.7230 133° Southeast 458 527 39,000  Level FlightAware
06:54AM -21.7220 -47.6460 134° Southeast 457 526 39,000 -660 Level FlightAware
06:55AM -21.7800 -47.5790 133° Southeast 449 517 38,100 -2,220 Descending FlightAware
06:55AM -21.8380 -47.5140 134° Southeast 457 526 36,100 -2,340 Descending FlightAware
06:56AM -21.9040 -47.4370 133° Southeast 450 518 34,800 -1,800 Descending FlightAware
06:57AM -21.9670 -47.3660 134° Southeast 431 496 33,400 -2,280 Descending FlightAware
06:57AM -22.0270 -47.3270 149° Southeast 417 480 31,800 -2,640 Descending FlightAware
06:58AM -22.1080 -47.2940 159° South 400 460 29,900 -2,640 Descending FlightAware
06:59AM -22.1840 -47.2620 159° South 395 455 27,900 -2,520 Descending FlightAware
07:00AM -22.2530 -47.2340 159° South 377 434 26,400 -1,980 Descending FlightAware
07:00AM -22.3140 -47.2090 159° South 348 400 25,300 -1,740 Descending FlightAware
07:01AM -22.3860 -47.1790 159° South 343 395 24,000 -1,680 Descending FlightAware
07:02AM -22.4450 -47.1540 159° South 347 399 23,000 -1,680 Descending FlightAware
07:02AM -22.5130 -47.1250 158° South 344 396 21,700 -1,740 Descending FlightAware
07:03AM -22.5720 -47.1000 159° South 334 384 20,600 -1,680 Descending FlightAware
07:04AM -22.6370 -47.0720 158° South 331 381 19,400 -1,680 Descending FlightAware
07:05AM -22.6960 -47.0480 159° South 328 377 18,300 -1,620 Descending FlightAware
07:05AM -22.7540 -47.0240 159° South 327 376 17,300 -1,560 Descending FlightAware
07:06AM -22.8200 -46.9960 159° South 331 381 16,100 -1,680 Descending FlightAware
07:07AM -22.8760 -46.9720 158° South 330 380 15,000 -1,740 Descending FlightAware
07:07AM -22.9410 -46.9450 159° South 331 381 13,700 -1,800 Descending FlightAware
07:08AM -22.9980 -46.9210 159° South 331 381 12,500 -1,800 Descending FlightAware
07:09AM -23.0550 -46.8970 159° South 331 381 11,300 -1,740 Descending FlightAware
07:09AM -23.1130 -46.8720 158° South 328 377 10,200 -1,140 Descending FlightAware
07:10AM -23.1530 -46.8550 159° South 298 343 10,000 -240 Descending FlightAware
07:10AM -23.1860 -46.8420 160° South 280 322 10,000 -600 Level FlightAware
07:11AM -23.2290 -46.8230 158° South 274 315 9,400 -840 Descending FlightAware
07:11AM -23.2570 -46.8120 160° South 258 297 9,200 -660 Descending FlightAware
07:12AM -23.2890 -46.7980 158° South 225 259 8,800 -960 Descending FlightAware
07:12AM -23.3090 -46.7900 160° South 222 255 8,400 -1,380 Descending FlightAware
07:12AM -23.3280 -46.7810 156° South 211 243 7,900 -1,320 Descending FlightAware
07:13AM -23.3570 -46.7690 159° South 224 258 7,300 -1,080 Descending FlightAware
07:13AM -23.3760 -46.7590 154° Southeast 222 255 7,000 -1,020 Descending FlightAware
07:14AM -23.4030 -46.7340 140° Southeast 214 246 6,400 -1,140 Descending FlightAware
07:14AM -23.4220 -46.7160 139° Southeast 215 247 5,900 -780 Descending FlightAware
07:15AM -23.4340 -46.7050 140° Southeast 210 242 5,900 -900 Level FlightAware
07:16AM -23.4730 -46.6330 121° Southeast 206 237 4,400 -960 Descending FlightAware
07:16AM -23.4740 -46.6180 94° East 205 236 4,300 -300 Descending FlightAware
07:17AM -23.4670 -46.5930 73° East 201 231 4,200 -900 Descending FlightAware
07:17AM -23.4590 -46.5630 74° East 191 220 3,500 -1,140 Descending FlightAware
07:18AM -23.4530 -46.5380 75° East 157 181 3,100 -780 Descending FlightAware
07:18AM -23.4480 -46.5210 72° East 136 157 2,800 -780 Descending FlightAware
07:18AM -23.4450 -46.5110 72° East 134 154 2,600 -720 Descending FlightAware
07:19AM -23.4400 -46.4920 74° East 132 152 2,300 -600 Descending FlightAware